<?xml version="1.0" encoding="UTF-8" standalone="no" ?>
<gpx xmlns="http://www.topografix.com/GPX/1/1" xmlns:xsi="http://www.w3.org/2001/XMLSchema-instance" xsi:schemaLocation="http://www.topografix.com/GPX/1/1 http://www.topografix.com/GPX/1/1/gpx.xsd" version="1.1" creator="VisuGPX - https://www.visugpx.com">
  <metadata>
    <name>LeGuedeniau_BoisVallees_17km</name>
    <desc><![CDATA[gnerando idor:7349116_7487996]]></desc>
  </metadata>
  <trk>
    <name><![CDATA[Guedeniau_alban_17.2km-7349116]]></name>
    <extensions>
      <line xmlns="http://www.topografix.com/GPX/gpx_style/0/2">
        <color>00FF00</color>
        <width>4</width>
      </line>
    </extensions>
    <trkseg>
      <trkpt lat="47.49377" lon="-0.04566">
        <ele>62</ele>
        <time>2023-11-04T16:56:01Z</time>
      </trkpt>
      <trkpt lat="47.49473" lon="-0.04682">
        <ele>62</ele>
        <time>2023-11-04T16:58:46Z</time>
      </trkpt>
      <trkpt lat="47.49456" lon="-0.04806">
        <ele>62</ele>
        <time>2023-11-04T17:00:40Z</time>
      </trkpt>
      <trkpt lat="47.49418" lon="-0.04883">
        <ele>61</ele>
        <time>2023-11-04T17:02:06Z</time>
      </trkpt>
      <trkpt lat="47.49398" lon="-0.04999">
        <ele>60</ele>
        <time>2023-11-04T17:03:54Z</time>
      </trkpt>
      <trkpt lat="47.49366" lon="-0.05111">
        <ele>59</ele>
        <time>2023-11-04T17:05:44Z</time>
      </trkpt>
      <trkpt lat="47.49395" lon="-0.05313">
        <ele>60</ele>
        <time>2023-11-04T17:08:50Z</time>
      </trkpt>
      <trkpt lat="47.49502" lon="-0.05652">
        <ele>62</ele>
        <time>2023-11-04T17:14:28Z</time>
      </trkpt>
      <trkpt lat="47.49557" lon="-0.05999">
        <ele>65</ele>
        <time>2023-11-04T17:19:49Z</time>
      </trkpt>
      <trkpt lat="47.49896" lon="-0.06433">
        <ele>62</ele>
        <time>2023-11-04T17:29:47Z</time>
      </trkpt>
      <trkpt lat="47.49981" lon="-0.06321">
        <ele>67</ele>
        <time>2023-11-04T17:32:19Z</time>
      </trkpt>
      <trkpt lat="47.49914" lon="-0.06089">
        <ele>67</ele>
        <time>2023-11-04T17:36:06Z</time>
      </trkpt>
      <trkpt lat="47.49862" lon="-0.05888">
        <ele>68</ele>
        <time>2023-11-04T17:39:20Z</time>
      </trkpt>
      <trkpt lat="47.49865" lon="-0.05364">
        <ele>75</ele>
        <time>2023-11-04T17:47:13Z</time>
      </trkpt>
      <trkpt lat="47.50056" lon="-0.05364">
        <ele>76</ele>
        <time>2023-11-04T17:51:28Z</time>
      </trkpt>
      <trkpt lat="47.50137" lon="-0.05334">
        <ele>78</ele>
        <time>2023-11-04T17:53:19Z</time>
      </trkpt>
      <trkpt lat="47.50166" lon="-0.05188">
        <ele>77</ele>
        <time>2023-11-04T17:55:36Z</time>
      </trkpt>
      <trkpt lat="47.50024" lon="-0.05034">
        <ele>77</ele>
        <time>2023-11-04T17:59:31Z</time>
      </trkpt>
      <trkpt lat="47.50111" lon="-0.04853">
        <ele>73</ele>
        <time>2023-11-04T18:02:52Z</time>
      </trkpt>
      <trkpt lat="47.50189" lon="-0.04905">
        <ele>73</ele>
        <time>2023-11-04T18:04:46Z</time>
      </trkpt>
      <trkpt lat="47.50227" lon="-0.04841">
        <ele>72</ele>
        <time>2023-11-04T18:06:03Z</time>
      </trkpt>
      <trkpt lat="47.50279" lon="-0.04823">
        <ele>72</ele>
        <time>2023-11-04T18:07:14Z</time>
      </trkpt>
      <trkpt lat="47.50239" lon="-0.0463">
        <ele>74</ele>
        <time>2023-11-04T18:10:16Z</time>
      </trkpt>
      <trkpt lat="47.50152" lon="-0.04313">
        <ele>77</ele>
        <time>2023-11-04T18:15:24Z</time>
      </trkpt>
      <trkpt lat="47.50555" lon="-0.04184">
        <ele>86</ele>
        <time>2023-11-04T18:24:34Z</time>
      </trkpt>
      <trkpt lat="47.50792" lon="-0.04115">
        <ele>85</ele>
        <time>2023-11-04T18:29:57Z</time>
      </trkpt>
      <trkpt lat="47.50752" lon="-0.03944">
        <ele>84</ele>
        <time>2023-11-04T18:32:40Z</time>
      </trkpt>
      <trkpt lat="47.50708" lon="-0.03815">
        <ele>81</ele>
        <time>2023-11-04T18:34:50Z</time>
      </trkpt>
      <trkpt lat="47.50671" lon="-0.03695">
        <ele>79</ele>
        <time>2023-11-04T18:36:49Z</time>
      </trkpt>
      <trkpt lat="47.50639" lon="-0.03613">
        <ele>79</ele>
        <time>2023-11-04T18:38:14Z</time>
      </trkpt>
      <trkpt lat="47.50575" lon="-0.03605">
        <ele>77</ele>
        <time>2023-11-04T18:39:40Z</time>
      </trkpt>
      <trkpt lat="47.5052" lon="-0.03497">
        <ele>81</ele>
        <time>2023-11-04T18:41:42Z</time>
      </trkpt>
      <trkpt lat="47.50386" lon="-0.03399">
        <ele>76</ele>
        <time>2023-11-04T18:45:02Z</time>
      </trkpt>
      <trkpt lat="47.50317" lon="-0.03343">
        <ele>72</ele>
        <time>2023-11-04T18:46:47Z</time>
      </trkpt>
      <trkpt lat="47.50221" lon="-0.03291">
        <ele>71</ele>
        <time>2023-11-04T18:49:03Z</time>
      </trkpt>
      <trkpt lat="47.50117" lon="-0.03257">
        <ele>66</ele>
        <time>2023-11-04T18:51:25Z</time>
      </trkpt>
      <trkpt lat="47.49983" lon="-0.03133">
        <ele>68</ele>
        <time>2023-11-04T18:54:56Z</time>
      </trkpt>
      <trkpt lat="47.49992" lon="-0.03081">
        <ele>69</ele>
        <time>2023-11-04T18:55:44Z</time>
      </trkpt>
      <trkpt lat="47.49899" lon="-0.02982">
        <ele>72</ele>
        <time>2023-11-04T18:58:17Z</time>
      </trkpt>
      <trkpt lat="47.49844" lon="-0.02763">
        <ele>71</ele>
        <time>2023-11-04T19:01:48Z</time>
      </trkpt>
      <trkpt lat="47.49783" lon="-0.02583">
        <ele>73</ele>
        <time>2023-11-04T19:04:49Z</time>
      </trkpt>
      <trkpt lat="47.49723" lon="-0.02394">
        <ele>76</ele>
        <time>2023-11-04T19:07:58Z</time>
      </trkpt>
      <trkpt lat="47.4972" lon="-0.02309">
        <ele>76</ele>
        <time>2023-11-04T19:09:14Z</time>
      </trkpt>
      <trkpt lat="47.49604" lon="-0.02424">
        <ele>77</ele>
        <time>2023-11-04T19:12:21Z</time>
      </trkpt>
      <trkpt lat="47.49505" lon="-0.0266">
        <ele>78</ele>
        <time>2023-11-04T19:16:31Z</time>
      </trkpt>
      <trkpt lat="47.49444" lon="-0.02793">
        <ele>81</ele>
        <time>2023-11-04T19:18:56Z</time>
      </trkpt>
      <trkpt lat="47.49253" lon="-0.0254">
        <ele>100</ele>
        <time>2023-11-04T19:24:38Z</time>
      </trkpt>
      <trkpt lat="47.48928" lon="-0.01871">
        <ele>104</ele>
        <time>2023-11-04T19:37:01Z</time>
      </trkpt>
      <trkpt lat="47.48826" lon="-0.01643">
        <ele>111</ele>
        <time>2023-11-04T19:41:08Z</time>
      </trkpt>
      <trkpt lat="47.48728" lon="-0.01442">
        <ele>111</ele>
        <time>2023-11-04T19:44:51Z</time>
      </trkpt>
      <trkpt lat="47.4865" lon="-0.01352">
        <ele>111</ele>
        <time>2023-11-04T19:47:03Z</time>
      </trkpt>
      <trkpt lat="47.48432" lon="-0.01575">
        <ele>103</ele>
        <time>2023-11-04T19:52:57Z</time>
      </trkpt>
      <trkpt lat="47.48215" lon="-0.01789">
        <ele>103</ele>
        <time>2023-11-04T19:58:45Z</time>
      </trkpt>
      <trkpt lat="47.47954" lon="-0.02025">
        <ele>102</ele>
        <time>2023-11-04T20:05:33Z</time>
      </trkpt>
      <trkpt lat="47.47739" lon="-0.0224">
        <ele>96</ele>
        <time>2023-11-04T20:11:19Z</time>
      </trkpt>
      <trkpt lat="47.47565" lon="-0.02403">
        <ele>95</ele>
        <time>2023-11-04T20:15:54Z</time>
      </trkpt>
      <trkpt lat="47.47649" lon="-0.02656">
        <ele>97</ele>
        <time>2023-11-04T20:20:08Z</time>
      </trkpt>
      <trkpt lat="47.47774" lon="-0.02871">
        <ele>96</ele>
        <time>2023-11-04T20:24:24Z</time>
      </trkpt>
      <trkpt lat="47.47846" lon="-0.03021">
        <ele>101</ele>
        <time>2023-11-04T20:27:10Z</time>
      </trkpt>
      <trkpt lat="47.47919" lon="-0.03137">
        <ele>102</ele>
        <time>2023-11-04T20:29:33Z</time>
      </trkpt>
      <trkpt lat="47.48041" lon="-0.0321">
        <ele>98</ele>
        <time>2023-11-04T20:32:29Z</time>
      </trkpt>
      <trkpt lat="47.47991" lon="-0.03519">
        <ele>96</ele>
        <time>2023-11-04T20:37:15Z</time>
      </trkpt>
      <trkpt lat="47.47948" lon="-0.03884">
        <ele>98</ele>
        <time>2023-11-04T20:42:50Z</time>
      </trkpt>
      <trkpt lat="47.47707" lon="-0.03725">
        <ele>95</ele>
        <time>2023-11-04T20:48:42Z</time>
      </trkpt>
      <trkpt lat="47.47521" lon="-0.03575">
        <ele>96</ele>
        <time>2023-11-04T20:53:24Z</time>
      </trkpt>
      <trkpt lat="47.47385" lon="-0.03557">
        <ele>96</ele>
        <time>2023-11-04T20:56:27Z</time>
      </trkpt>
      <trkpt lat="47.47234" lon="-0.03506">
        <ele>95</ele>
        <time>2023-11-04T20:59:53Z</time>
      </trkpt>
      <trkpt lat="47.47147" lon="-0.03493">
        <ele>90</ele>
        <time>2023-11-04T21:01:50Z</time>
      </trkpt>
      <trkpt lat="47.46959" lon="-0.03532">
        <ele>81</ele>
        <time>2023-11-04T21:06:03Z</time>
      </trkpt>
      <trkpt lat="47.46915" lon="-0.04025">
        <ele>79</ele>
        <time>2023-11-04T21:13:32Z</time>
      </trkpt>
      <trkpt lat="47.47022" lon="-0.03969">
        <ele>84</ele>
        <time>2023-11-04T21:16:03Z</time>
      </trkpt>
      <trkpt lat="47.47089" lon="-0.03978">
        <ele>87</ele>
        <time>2023-11-04T21:17:33Z</time>
      </trkpt>
      <trkpt lat="47.47159" lon="-0.03991">
        <ele>88</ele>
        <time>2023-11-04T21:19:07Z</time>
      </trkpt>
      <trkpt lat="47.4724" lon="-0.04068">
        <ele>89</ele>
        <time>2023-11-04T21:21:16Z</time>
      </trkpt>
      <trkpt lat="47.4733" lon="-0.04197">
        <ele>92</ele>
        <time>2023-11-04T21:24:03Z</time>
      </trkpt>
      <trkpt lat="47.47347" lon="-0.04441">
        <ele>93</ele>
        <time>2023-11-04T21:27:44Z</time>
      </trkpt>
      <trkpt lat="47.47478" lon="-0.046">
        <ele>94</ele>
        <time>2023-11-04T21:31:30Z</time>
      </trkpt>
      <trkpt lat="47.47634" lon="-0.04806">
        <ele>90</ele>
        <time>2023-11-04T21:36:09Z</time>
      </trkpt>
      <trkpt lat="47.47588" lon="-0.04888">
        <ele>93</ele>
        <time>2023-11-04T21:37:45Z</time>
      </trkpt>
      <trkpt lat="47.47672" lon="-0.04956">
        <ele>89</ele>
        <time>2023-11-04T21:39:53Z</time>
      </trkpt>
      <trkpt lat="47.47803" lon="-0.04952">
        <ele>93</ele>
        <time>2023-11-04T21:42:48Z</time>
      </trkpt>
      <trkpt lat="47.47817" lon="-0.04853">
        <ele>91</ele>
        <time>2023-11-04T21:44:19Z</time>
      </trkpt>
      <trkpt lat="47.47942" lon="-0.05089">
        <ele>96</ele>
        <time>2023-11-04T21:48:50Z</time>
      </trkpt>
      <trkpt lat="47.47997" lon="-0.05201">
        <ele>95</ele>
        <time>2023-11-04T21:50:55Z</time>
      </trkpt>
      <trkpt lat="47.48087" lon="-0.05562">
        <ele>80</ele>
        <time>2023-11-04T21:56:42Z</time>
      </trkpt>
      <trkpt lat="47.48142" lon="-0.05446">
        <ele>85</ele>
        <time>2023-11-04T21:58:49Z</time>
      </trkpt>
      <trkpt lat="47.482" lon="-0.05158">
        <ele>85</ele>
        <time>2023-11-04T22:03:20Z</time>
      </trkpt>
      <trkpt lat="47.48235" lon="-0.05008">
        <ele>81</ele>
        <time>2023-11-04T22:05:44Z</time>
      </trkpt>
      <trkpt lat="47.48273" lon="-0.04892">
        <ele>74</ele>
        <time>2023-11-04T22:07:40Z</time>
      </trkpt>
      <trkpt lat="47.48322" lon="-0.04798">
        <ele>75</ele>
        <time>2023-11-04T22:09:27Z</time>
      </trkpt>
      <trkpt lat="47.48391" lon="-0.04729">
        <ele>80</ele>
        <time>2023-11-04T22:11:18Z</time>
      </trkpt>
      <trkpt lat="47.48461" lon="-0.04639">
        <ele>83</ele>
        <time>2023-11-04T22:13:22Z</time>
      </trkpt>
      <trkpt lat="47.48505" lon="-0.04497">
        <ele>91</ele>
        <time>2023-11-04T22:15:43Z</time>
      </trkpt>
      <trkpt lat="47.48557" lon="-0.04407">
        <ele>88</ele>
        <time>2023-11-04T22:17:29Z</time>
      </trkpt>
      <trkpt lat="47.48632" lon="-0.04304">
        <ele>88</ele>
        <time>2023-11-04T22:19:46Z</time>
      </trkpt>
      <trkpt lat="47.4871" lon="-0.04244">
        <ele>88</ele>
        <time>2023-11-04T22:21:43Z</time>
      </trkpt>
      <trkpt lat="47.48774" lon="-0.0421">
        <ele>86</ele>
        <time>2023-11-04T22:23:14Z</time>
      </trkpt>
      <trkpt lat="47.48826" lon="-0.04167">
        <ele>83</ele>
        <time>2023-11-04T22:24:33Z</time>
      </trkpt>
      <trkpt lat="47.48942" lon="-0.04175">
        <ele>74</ele>
        <time>2023-11-04T22:27:08Z</time>
      </trkpt>
      <trkpt lat="47.49116" lon="-0.043">
        <ele>68</ele>
        <time>2023-11-04T22:31:27Z</time>
      </trkpt>
      <trkpt lat="47.49189" lon="-0.04377">
        <ele>67</ele>
        <time>2023-11-04T22:33:26Z</time>
      </trkpt>
      <trkpt lat="47.49235" lon="-0.0445">
        <ele>66</ele>
        <time>2023-11-04T22:34:56Z</time>
      </trkpt>
      <trkpt lat="47.49302" lon="-0.04536">
        <ele>65</ele>
        <time>2023-11-04T22:36:55Z</time>
      </trkpt>
      <trkpt lat="47.49378" lon="-0.04565">
        <ele>62</ele>
        <time>2023-11-04T22:38:39Z</time>
      </trkpt>
    </trkseg>
  </trk>
</gpx>